Terminal Aerodrome Forecast
Issued by NWS Greer, SC

Home | Current Version | Previous Version | Text Only | Print | Product List | Glossary On
Versions: 1 2 3 4 5 6 7 8 9 10 11 12 13 14 15 16 17 18 19 20 21 22 23 24 25 26 27 28
000
FTUS42 KGSP 252330
TAFCLT
TAF
KCLT 252330Z 2600/2624 04004KT P6SM FEW040 SCT060
     FM260400 00000KT 4SM BR SCT040
     FM260900 21002KT 2SM BR SCT005 BKN050
     FM261300 22005KT P6SM FEW050
     FM261800 21007KT P6SM SCT050=

USA.gov is the U.S. government's official web portal to all federal, state and local government web resources and services.